KSRQKVNC

Guest
Details From KSRQ - Sarasota Bradenton Intl
To KVNC - Venice Muni
Flight Number -
Tags generated
Created
Modified
Stats Distance 22 nm / 41 km
Max Altitude 300 ft / 91 m
Waypoints 3
Social Downloads 0
Likes 0
Share VATSIM

Download

Looking for another format? Having issues loading an existing format? Contact us
Advertisement - Login to hide

Notes

Basic altitude profile: - Ascent Rate: 5ft/min - Ascent Speed: 250kts - Cruise Altitude: 4444ft - Cruise Speed: 420kts - Descent Rate: 1500ft/min - Descent Speed: 250kts Options: - Use NATs: yes - Use PACOTS: yes - Use low airways: yes - Use high airways: yes

Route

KSRQ SRQ KVNC

ID Type Via Altitude Latitude Longitude Leg Dist Tot Dist Heading (true) Name
O KSRQ APT - 0 ft / 0 m 27.39544˚ -82.55404˚ - 0 nm - Sarasota Bradenton Intl
SRQ VOR - 300 ft / 91 m 27.40703˚ -82.56367˚ 0 nm 0 nm 324° / 324° SARASOTA VORTAC
O KVNC APT - 0 ft / 0 m 27.07162˚ -82.44033˚ 21 nm 22 nm 162° / 162° Venice Muni

Altitude Profile

Advertisement - Login to hide

KSRQ

Details ICAO KSRQ (SRQ)
Name Sarasota Bradenton Intl
Region United States
Timezone America/New_York (UTC-4.0)
Stats Elevation 31 ft / 9 m (AMSL)
Location 27.395443° -82.554035°
Runways 2
Magnetic Variation 5.504° W

METAR

KSRQ 241553Z VRB03KT 10SM FEW045 SCT090 29/22 A3007 RMK AO2 SLP182 T02890222

Decode

TAF

KSRQ 241410Z 2414/2512 09006KT P6SM SCT020 BKN250 TEMPO 2414/2416 BKN020 FM241900 26008KT P6SM VCTS SCT040CB BKN080 FM250200 VRB03KT P6SM SCT020 BKN250

Decode

Departure Runways

ID Width Length Bearing (true) Bearing (mag) Surface Threshold Offset Overrun Length
04 150 ft / 46 m 5,019 ft / 1,530 m 37.96° 43.46° Asphalt 0 ft / 0 m 0 ft / 0 m
14 150 ft / 46 m 9,510 ft / 2,899 m 134.53° 140.03° Asphalt 1,350 ft / 411 m 0 ft / 0 m
22 150 ft / 46 m 5,019 ft / 1,530 m 217.96° 223.46° Asphalt 0 ft / 0 m 0 ft / 0 m
32 150 ft / 46 m 9,510 ft / 2,899 m 314.54° 320.04° Asphalt 1,147 ft / 350 m 0 ft / 0 m

KVNC

Details ICAO KVNC
Name Venice Muni
Region United States
Timezone America/New_York (UTC-4.0)
Stats Elevation 18 ft / 5 m (AMSL)
Location 27.071620° -82.440331°
Runways 2
Magnetic Variation 5.530° W

METAR

KVNC 241555Z AUTO 06008KT 10SM FEW039 FEW050 SCT100 31/22 A3009 RMK AO2

Decode

TAF

Not found

Destination Runways

ID Width Length Bearing (true) Bearing (mag) Surface Threshold Offset Overrun Length
04 150 ft / 46 m 5,005 ft / 1,526 m 45.05° 50.58° Asphalt 0 ft / 0 m 0 ft / 0 m
13 150 ft / 46 m 5,005 ft / 1,526 m 135.37° 140.90° Asphalt 0 ft / 0 m 0 ft / 0 m
22 150 ft / 46 m 5,005 ft / 1,526 m 225.06° 230.59° Asphalt 294 ft / 90 m 0 ft / 0 m
31 150 ft / 46 m 5,005 ft / 1,526 m 315.37° 320.90° Asphalt 0 ft / 0 m 0 ft / 0 m